Terminal Aerodrome Forecast
Issued by NWS Upton, NY

Home | Current Version | Previous Version | Text Only | Print | Product List | Glossary On
Versions: 1 2 3 4 5 6 7 8 9 10 11 12 13 14 15 16 17 18 19 20 21 22 23 24 25 26 27 28 29 30 31 32
000
FTUS41 KOKX 311121
TAFEWR
TAF
KEWR 311121Z 3112/0118 24008KT P6SM BKN120 BKN250
     FM311600 27010KT P6SM FEW050 BKN250
     FM311900 27012G20KT P6SM SCT050 BKN250
     FM010000 28010KT P6SM FEW050 SCT250
     FM010600 27006KT P6SM FEW050
     FM011200 36006KT P6SM FEW050=

USA.gov is the U.S. government's official web portal to all federal, state and local government web resources and services.